createdAt,value
2022-11-29T00:01:17.707Z,33.55
2022-11-29T00:03:44.546Z,43.40
2022-11-29T00:06:13.730Z,42.00
2022-11-29T00:08:41.393Z,38.67
2022-11-29T00:11:37.462Z,37.65
2022-11-29T00:14:04.981Z,37.25
2022-11-29T00:16:31.580Z,38.10
2022-11-29T00:18:58.350Z,33.10
2022-11-29T00:21:25.002Z,32.08
2022-11-29T00:23:51.625Z,35.75
2022-11-29T00:26:18.269Z,33.30
2022-11-29T00:28:44.897Z,32.47
2022-11-29T00:31:20.136Z,28.73
2022-11-29T00:33:47.069Z,31.50
2022-11-29T00:36:14.620Z,31.30
2022-11-29T00:38:41.597Z,33.17
2022-11-29T00:41:09.684Z,35.83
2022-11-29T00:43:36.519Z,37.03
2022-11-29T00:46:04.107Z,38.80
2022-11-29T00:48:31.329Z,36.97
2022-11-29T00:50:58.536Z,40.83
2022-11-29T00:53:25.333Z,40.17
2022-11-29T00:55:53.021Z,39.95
2022-11-29T00:58:20.845Z,38.38
2022-11-29T01:00:47.833Z,39.30
2022-11-29T01:03:15.169Z,38.15
2022-11-29T01:05:43.000Z,41.97
2022-11-29T01:08:11.081Z,39.55
2022-11-29T01:10:37.714Z,35.15
2022-11-29T01:13:04.598Z,37.72
2022-11-29T01:15:31.525Z,39.58
2022-11-29T01:17:58.218Z,43.63
2022-11-29T01:20:25.166Z,41.30
2022-11-29T01:22:51.773Z,41.85
2022-11-29T01:25:19.482Z,38.83
2022-11-29T01:27:46.627Z,37.22
2022-11-29T01:30:13.779Z,39.40
2022-11-29T01:32:40.391Z,38.25
2022-11-29T01:35:07.393Z,39.50
2022-11-29T01:37:34.365Z,39.25
2022-11-29T01:40:00.962Z,41.05
2022-11-29T01:42:27.577Z,33.85
2022-11-29T01:45:07.101Z,41.75
2022-11-29T01:47:39.422Z,41.95
2022-11-29T01:50:07.904Z,41.50
2022-11-29T01:52:34.489Z,38.13
2022-11-29T01:55:06.491Z,40.38
2022-11-29T01:57:35.441Z,36.33
2022-11-29T02:00:11.541Z,39.00
2022-11-29T02:03:11.973Z,38.78
2022-11-29T02:05:42.285Z,36.22
2022-11-29T02:08:11.420Z,40.47
2022-11-29T02:10:43.218Z,39.58
2022-11-29T02:13:25.177Z,38.60
2022-11-29T02:16:10.256Z,46.95
2022-11-29T02:19:03.312Z,52.58
2022-11-29T02:21:38.677Z,49.88
2022-11-29T02:24:24.379Z,47.22
2022-11-29T02:27:03.262Z,45.83
2022-11-29T02:29:54.558Z,40.33
2022-11-29T02:32:46.030Z,45.97
2022-11-29T02:35:21.641Z,48.20
2022-11-29T02:37:58.558Z,52.53
2022-11-29T02:40:43.807Z,44.92
2022-11-29T02:43:31.853Z,46.15
2022-11-29T02:46:07.406Z,47.85
2022-11-29T02:48:36.820Z,49.00
2022-11-29T02:51:40.900Z,57.33
2022-11-29T02:54:29.871Z,46.45
2022-11-29T02:57:26.012Z,56.85
2022-11-29T03:00:05.198Z,58.63
2022-11-29T03:02:50.585Z,67.53
2022-11-29T03:05:44.815Z,55.05
2022-11-29T03:08:42.132Z,59.35
2022-11-29T03:11:32.314Z,58.90
2022-11-29T03:14:14.745Z,52.15
2022-11-29T03:17:04.485Z,57.43
2022-11-29T03:19:39.934Z,55.30
2022-11-29T03:22:25.160Z,55.13
2022-11-29T03:25:32.985Z,50.85
2022-11-29T03:28:11.499Z,55.50
2022-11-29T03:30:43.962Z,57.17
2022-11-29T03:33:22.821Z,61.60
2022-11-29T03:36:27.742Z,53.50
2022-11-29T03:39:00.728Z,49.17
2022-11-29T03:41:41.510Z,60.17
2022-11-29T03:44:27.177Z,54.85
2022-11-29T03:47:04.098Z,55.38
2022-11-29T03:49:37.492Z,47.35
2022-11-29T03:52:21.973Z,58.65
2022-11-29T03:55:16.055Z,50.40
2022-11-29T03:58:08.902Z,45.90
2022-11-29T04:01:00.368Z,38.40
2022-11-29T04:03:44.891Z,48.35
2022-11-29T04:06:30.767Z,40.78
2022-11-29T04:09:23.020Z,46.53
2022-11-29T04:12:04.606Z,46.78
2022-11-29T04:14:55.577Z,41.55
2022-11-29T04:17:36.105Z,47.00
2022-11-29T04:20:41.083Z,43.03
2022-11-29T04:23:37.303Z,41.97
2022-11-29T04:26:21.961Z,47.53
2022-11-29T04:29:28.478Z,43.75
2022-11-29T04:32:16.950Z,41.90
2022-11-29T04:34:59.641Z,44.17
2022-11-29T04:37:58.121Z,44.45
2022-11-29T04:40:50.618Z,41.47
2022-11-29T04:43:27.935Z,46.88
2022-11-29T04:46:31.574Z,49.28
2022-11-29T04:49:00.803Z,43.55
2022-11-29T04:52:15.881Z,45.00
2022-11-29T04:55:04.553Z,44.22
2022-11-29T04:57:39.837Z,46.15
2022-11-29T05:00:12.702Z,44.15
2022-11-29T05:03:02.666Z,49.10
2022-11-29T05:05:45.625Z,39.40
2022-11-29T05:08:17.909Z,46.45
2022-11-29T05:11:02.784Z,44.63
2022-11-29T05:13:47.932Z,44.83
2022-11-29T05:16:33.295Z,45.72
2022-11-29T05:19:08.957Z,43.55
2022-11-29T05:21:54.882Z,53.28
2022-11-29T05:24:24.136Z,48.55
2022-11-29T05:27:02.195Z,48.25
2022-11-29T05:29:46.321Z,44.33
2022-11-29T05:32:43.901Z,44.50
2022-11-29T05:35:38.246Z,48.15
2022-11-29T05:38:32.224Z,46.58
2022-11-29T05:41:33.689Z,62.92
2022-11-29T05:44:16.839Z,58.65
2022-11-29T05:46:55.917Z,49.38
2022-11-29T05:49:22.477Z,49.42
2022-11-29T05:51:58.038Z,44.97
2022-11-29T05:54:31.402Z,45.33
2022-11-29T05:57:20.262Z,52.15
2022-11-29T05:59:50.801Z,44.17
2022-11-29T06:02:23.273Z,40.58
2022-11-29T06:05:06.785Z,45.30
2022-11-29T06:08:01.316Z,41.08
2022-11-29T06:10:35.956Z,36.35
2022-11-29T06:13:38.199Z,42.63
2022-11-29T06:16:42.649Z,39.92
2022-11-29T06:19:24.385Z,38.85
2022-11-29T06:22:06.238Z,33.83
2022-11-29T06:25:02.288Z,34.50
2022-11-29T06:27:35.365Z,32.92
2022-11-29T06:30:08.029Z,37.17
2022-11-29T06:32:54.565Z,38.33
2022-11-29T06:35:48.284Z,33.42
2022-11-29T06:40:44.887Z,34.35
2022-11-29T06:43:11.814Z,34.20
2022-11-29T06:45:43.134Z,33.78
2022-11-29T06:48:11.714Z,47.17
2022-11-29T06:51:15.622Z,41.65
2022-11-29T06:56:29.109Z,39.85
2022-11-29T06:59:24.257Z,35.85
2022-11-29T07:02:04.969Z,38.33
2022-11-29T07:04:46.762Z,35.70
2022-11-29T07:07:18.605Z,36.05
2022-11-29T07:09:49.404Z,32.70
2022-11-29T07:12:17.621Z,42.30
2022-11-29T07:14:45.165Z,38.88
2022-11-29T07:17:20.925Z,37.40
2022-11-29T07:19:58.173Z,35.50
2022-11-29T07:22:27.473Z,39.42
2022-11-29T07:25:20.544Z,29.90
2022-11-29T07:28:02.593Z,26.15
2022-11-29T07:30:52.273Z,24.00
2022-11-29T07:33:21.807Z,27.45
2022-11-29T07:36:14.600Z,31.77
2022-11-29T07:39:10.369Z,24.40
2022-11-29T07:41:57.173Z,28.65
2022-11-29T07:44:32.677Z,32.17
2022-11-29T07:46:59.401Z,30.75
2022-11-29T07:49:25.983Z,32.85
2022-11-29T07:51:54.445Z,30.00
2022-11-29T07:54:22.228Z,31.80
2022-11-29T07:56:48.872Z,26.13
2022-11-29T07:59:15.520Z,25.38
2022-11-29T08:01:42.631Z,25.55
2022-11-29T08:04:09.993Z,24.20
2022-11-29T08:06:36.862Z,25.95
2022-11-29T08:09:04.884Z,22.73
2022-11-29T08:11:31.467Z,22.45
2022-11-29T08:14:03.814Z,28.92
2022-11-29T08:16:30.485Z,24.52
2022-11-29T08:18:57.149Z,23.33
2022-11-29T08:21:23.849Z,26.20
2022-11-29T08:23:51.470Z,26.17
2022-11-29T08:26:19.356Z,27.05
2022-11-29T08:28:46.281Z,23.10
2022-11-29T08:31:14.024Z,23.08
2022-11-29T08:33:43.642Z,25.92
2022-11-29T08:36:18.417Z,21.73
2022-11-29T08:38:45.377Z,27.80
2022-11-29T08:41:14.344Z,22.08
2022-11-29T08:43:41.738Z,30.55
2022-11-29T08:46:13.681Z,30.00
2022-11-29T08:48:43.423Z,30.30
2022-11-29T08:51:10.013Z,31.85
2022-11-29T08:53:42.918Z,26.85
2022-11-29T08:56:49.413Z,27.23
2022-11-29T08:58:57.276Z,22.38
2022-11-29T09:01:24.017Z,23.02
2022-11-29T09:03:59.806Z,24.83
2022-11-29T09:06:28.348Z,54.42
2022-11-29T09:08:59.074Z,32.42
2022-11-29T09:11:27.560Z,27.27
2022-11-29T09:13:57.499Z,39.00
2022-11-29T09:16:27.253Z,41.22
2022-11-29T09:18:56.037Z,37.10
2022-11-29T09:21:24.873Z,36.17
2022-11-29T09:23:59.320Z,28.80
2022-11-29T09:26:29.267Z,24.70
2022-11-29T09:28:57.940Z,25.13
2022-11-29T09:31:24.708Z,25.08
2022-11-29T09:33:51.830Z,23.45
2022-11-29T09:36:23.704Z,25.40
2022-11-29T09:38:53.296Z,25.48
2022-11-29T09:41:50.725Z,27.63
2022-11-29T09:44:52.934Z,26.52
2022-11-29T09:47:33.113Z,28.38
2022-11-29T09:50:25.833Z,27.55
2022-11-29T09:53:06.681Z,31.50
2022-11-29T09:55:39.563Z,31.40
2022-11-29T09:58:13.434Z,35.38
2022-11-29T10:00:51.050Z,40.33
2022-11-29T10:03:26.858Z,38.45
2022-11-29T10:06:02.487Z,40.63
2022-11-29T10:08:38.423Z,36.95
2022-11-29T10:11:28.303Z,37.88
2022-11-29T10:14:12.986Z,29.10
2022-11-29T10:16:43.849Z,34.83
2022-11-29T10:19:21.974Z,32.22
2022-11-29T10:22:05.042Z,31.88
2022-11-29T10:24:34.286Z,33.60
2022-11-29T10:27:00.898Z,33.17
2022-11-29T10:29:27.627Z,29.05
2022-11-29T10:31:56.868Z,27.63
2022-11-29T10:34:26.162Z,28.30
2022-11-29T10:36:59.962Z,31.63
2022-11-29T10:39:37.285Z,32.45
2022-11-29T10:42:06.645Z,30.10
2022-11-29T10:44:34.036Z,28.15
2022-11-29T10:47:09.447Z,28.85
2022-11-29T10:49:38.039Z,29.95
2022-11-29T10:52:05.684Z,25.70
2022-11-29T10:54:41.670Z,24.83
2022-11-29T10:57:22.929Z,29.10
2022-11-29T11:00:00.300Z,27.05
2022-11-29T11:02:27.853Z,31.08
2022-11-29T11:04:54.645Z,25.75
2022-11-29T11:07:35.699Z,28.20
2022-11-29T11:10:17.438Z,29.90
2022-11-29T11:13:04.658Z,30.98
2022-11-29T11:15:32.443Z,26.63
2022-11-29T11:18:07.132Z,23.20
2022-11-29T11:20:37.890Z,26.38
2022-11-29T11:23:07.595Z,21.45
2022-11-29T11:25:39.001Z,26.48
2022-11-29T11:28:21.323Z,23.50
2022-11-29T11:30:59.223Z,20.90
2022-11-29T11:33:28.831Z,25.83
2022-11-29T11:36:04.206Z,26.88
2022-11-29T11:38:31.384Z,23.30
2022-11-29T11:41:44.689Z,25.02
2022-11-29T11:44:47.021Z,20.67
2022-11-29T11:47:21.764Z,24.23
2022-11-29T11:50:00.369Z,22.58
2022-11-29T11:52:32.962Z,27.50
2022-11-29T11:55:21.750Z,26.10
2022-11-29T11:58:12.561Z,29.30
2022-11-29T12:01:03.579Z,25.58
2022-11-29T12:03:45.230Z,30.90
2022-11-29T12:06:40.152Z,28.52
2022-11-29T12:09:09.984Z,28.77
2022-11-29T12:12:03.563Z,29.77
2022-11-29T12:14:55.958Z,29.40
2022-11-29T12:17:32.624Z,29.20
2022-11-29T12:20:04.546Z,28.80
2022-11-29T12:22:41.511Z,31.10
2022-11-29T12:25:19.505Z,31.98
2022-11-29T12:27:46.238Z,30.92
2022-11-29T12:30:14.673Z,35.10
2022-11-29T12:33:02.957Z,36.80
2022-11-29T12:35:44.766Z,34.25
2022-11-29T12:38:48.690Z,36.63
2022-11-29T12:43:51.816Z,31.80
2022-11-29T12:46:26.051Z,37.20
2022-11-29T12:49:06.457Z,36.28
2022-11-29T12:51:51.221Z,35.28
2022-11-29T12:54:31.389Z,39.45
2022-11-29T12:57:22.907Z,36.25
2022-11-29T13:00:11.888Z,38.30
2022-11-29T13:03:00.227Z,39.78
2022-11-29T13:05:52.201Z,38.80
2022-11-29T13:08:43.065Z,38.08
2022-11-29T13:11:23.697Z,34.58
2022-11-29T13:14:13.807Z,34.25
2022-11-29T13:17:05.017Z,32.90
2022-11-29T13:19:42.654Z,29.95
2022-11-29T13:22:43.963Z,30.70
2022-11-29T13:25:32.141Z,34.70
2022-11-29T13:28:03.416Z,32.42
2022-11-29T13:30:30.186Z,34.40
2022-11-29T13:33:13.865Z,34.42
2022-11-29T13:35:57.868Z,34.00
2022-11-29T13:38:53.789Z,32.60
2022-11-29T13:41:43.710Z,35.65
2022-11-29T13:44:38.263Z,34.83
2022-11-29T13:47:15.705Z,37.42
2022-11-29T13:49:57.052Z,37.95
2022-11-29T13:52:36.591Z,37.08
2022-11-29T13:55:12.365Z,36.70
2022-11-29T13:58:15.067Z,33.10
2022-11-29T14:00:49.781Z,35.80
2022-11-29T14:03:22.167Z,33.97
2022-11-29T14:06:09.282Z,33.15
2022-11-29T14:09:10.312Z,35.38
2022-11-29T14:11:31.534Z,35.58
2022-11-29T14:14:09.034Z,30.92
2022-11-29T14:17:00.037Z,38.95
2022-11-29T14:19:33.471Z,28.35
2022-11-29T14:22:03.450Z,33.53
2022-11-29T14:24:33.292Z,32.10
2022-11-29T14:27:23.162Z,34.58
2022-11-29T14:29:49.876Z,35.22
2022-11-29T14:32:45.912Z,33.40
2022-11-29T14:35:13.140Z,30.13
2022-11-29T14:38:19.237Z,37.22
2022-11-29T14:40:54.436Z,32.95
2022-11-29T14:43:36.153Z,34.45
2022-11-29T14:46:23.555Z,34.13
2022-11-29T14:48:55.498Z,28.35
2022-11-29T14:51:25.082Z,32.60
2022-11-29T14:54:05.035Z,30.05
2022-11-29T14:56:42.663Z,30.75
2022-11-29T14:59:46.998Z,31.65
2022-11-29T15:02:37.999Z,29.77
2022-11-29T15:05:29.318Z,31.48
2022-11-29T15:08:20.823Z,30.58
2022-11-29T15:10:54.241Z,25.42
2022-11-29T15:13:31.305Z,29.90
2022-11-29T15:16:22.004Z,27.42
2022-11-29T15:19:18.452Z,29.17
2022-11-29T15:22:20.054Z,29.23
2022-11-29T15:24:54.973Z,32.03
2022-11-29T15:27:22.682Z,26.27
2022-11-29T15:29:49.534Z,29.60
2022-11-29T15:32:32.534Z,29.77
2022-11-29T15:34:59.702Z,27.52
2022-11-29T15:37:32.094Z,26.38
2022-11-29T15:40:20.340Z,26.38
2022-11-29T15:43:15.455Z,28.33
2022-11-29T15:45:48.419Z,29.27
2022-11-29T15:48:28.903Z,29.10
2022-11-29T15:51:04.870Z,26.88
2022-11-29T15:53:31.403Z,27.42
2022-11-29T15:56:01.207Z,28.98
2022-11-29T15:58:32.974Z,31.17
2022-11-29T16:01:01.254Z,31.70
2022-11-29T16:03:34.684Z,27.30
2022-11-29T16:06:20.332Z,33.33
2022-11-29T16:08:48.342Z,29.98
2022-11-29T16:11:23.233Z,29.45
2022-11-29T16:14:04.845Z,31.05
2022-11-29T16:16:34.214Z,26.13
2022-11-29T16:19:18.156Z,32.92
2022-11-29T16:21:44.982Z,33.38
2022-11-29T16:24:14.496Z,33.35
2022-11-29T16:26:46.114Z,33.90
2022-11-29T16:29:34.013Z,39.97
2022-11-29T16:32:23.379Z,29.42
2022-11-29T16:34:50.137Z,31.77
2022-11-29T16:37:25.514Z,31.40
2022-11-29T16:40:01.466Z,32.92
2022-11-29T16:42:30.349Z,37.92
2022-11-29T16:45:07.832Z,30.13
2022-11-29T16:48:24.592Z,42.78
2022-11-29T16:51:09.902Z,40.22
2022-11-29T16:53:47.701Z,30.33
2022-11-29T16:56:16.893Z,40.58
2022-11-29T16:59:25.498Z,34.28
2022-11-29T17:01:32.666Z,30.58
2022-11-29T17:04:00.175Z,34.63
2022-11-29T17:06:28.665Z,30.92
2022-11-29T17:08:57.236Z,32.28
2022-11-29T17:11:23.944Z,27.70
2022-11-29T17:13:51.014Z,31.45
2022-11-29T17:16:20.837Z,28.65
2022-11-29T17:18:48.212Z,25.45
2022-11-29T17:21:21.905Z,29.08
2022-11-29T17:23:49.030Z,28.60
2022-11-29T17:26:16.235Z,31.85
2022-11-29T17:28:44.281Z,33.38
2022-11-29T17:31:12.610Z,29.63
2022-11-29T17:33:39.375Z,31.23
2022-11-29T17:36:12.187Z,29.63
2022-11-29T17:38:38.910Z,32.08
2022-11-29T17:41:13.190Z,30.67
2022-11-29T17:43:40.600Z,29.55
2022-11-29T17:46:13.431Z,29.52
2022-11-29T17:48:40.372Z,28.15
2022-11-29T17:51:22.779Z,32.92
2022-11-29T17:53:55.234Z,28.50
2022-11-29T17:56:24.753Z,31.77
2022-11-29T17:58:55.863Z,28.50
2022-11-29T18:01:24.980Z,28.40
2022-11-29T18:03:54.673Z,28.63
2022-11-29T18:06:24.351Z,30.08
2022-11-29T18:08:56.282Z,28.67
2022-11-29T18:11:41.659Z,27.75
2022-11-29T18:14:13.284Z,25.85
2022-11-29T18:16:40.246Z,23.23
2022-11-29T18:19:09.349Z,25.45
2022-11-29T18:21:36.622Z,29.42
2022-11-29T18:24:05.842Z,28.63
2022-11-29T18:26:33.913Z,25.58
2022-11-29T18:29:00.758Z,26.10
2022-11-29T18:31:29.558Z,26.83
2022-11-29T18:33:58.986Z,29.10
2022-11-29T18:36:28.195Z,28.85
2022-11-29T18:38:59.924Z,24.90
2022-11-29T18:41:28.419Z,27.13
2022-11-29T18:43:58.950Z,29.88
2022-11-29T18:46:26.541Z,27.20
2022-11-29T18:48:53.190Z,32.00
2022-11-29T18:51:20.791Z,30.77
2022-11-29T18:53:47.691Z,26.70
2022-11-29T18:56:19.694Z,26.98
2022-11-29T18:58:48.334Z,29.23
2022-11-29T19:01:17.637Z,34.60
2022-11-29T19:03:47.730Z,31.70
2022-11-29T19:06:16.554Z,28.33
2022-11-29T19:08:43.472Z,27.88
2022-11-29T19:11:13.205Z,31.88
2022-11-29T19:13:40.732Z,31.23
2022-11-29T19:16:13.096Z,31.55
2022-11-29T19:18:40.556Z,34.63
2022-11-29T19:21:09.819Z,29.92
2022-11-29T19:23:36.418Z,27.40
2022-11-29T19:26:11.110Z,29.98
2022-11-29T19:28:39.665Z,29.50
2022-11-29T19:31:07.486Z,28.90
2022-11-29T19:33:35.202Z,36.10
2022-11-29T19:36:12.955Z,32.55
2022-11-29T19:38:40.010Z,33.78
2022-11-29T19:41:18.150Z,36.60
2022-11-29T19:43:45.761Z,35.80
2022-11-29T19:46:18.505Z,32.80
2022-11-29T19:48:45.467Z,33.80
2022-11-29T19:51:13.457Z,35.55
2022-11-29T19:53:40.194Z,37.08
2022-11-29T19:56:09.300Z,33.65
2022-11-29T19:58:36.059Z,38.78
2022-11-29T20:01:07.657Z,36.20
2022-11-29T20:03:34.853Z,35.92
2022-11-29T20:06:02.085Z,33.97
2022-11-29T20:08:29.275Z,34.42
2022-11-29T20:10:55.997Z,36.15
2022-11-29T20:13:22.932Z,33.17
2022-11-29T20:15:49.590Z,31.10
2022-11-29T20:18:16.232Z,34.50
2022-11-29T20:20:42.821Z,33.90
2022-11-29T20:23:09.437Z,29.20
2022-11-29T20:25:36.815Z,25.70
2022-11-29T20:28:04.243Z,25.42
2022-11-29T20:30:30.873Z,25.08
2022-11-29T20:32:57.597Z,31.90
2022-11-29T20:35:24.420Z,25.05
2022-11-29T20:38:28.367Z,27.65
2022-11-29T20:43:37.571Z,28.33
2022-11-29T20:46:04.414Z,24.90
2022-11-29T20:48:31.257Z,26.55
2022-11-29T20:51:00.841Z,24.50
2022-11-29T20:53:36.101Z,27.50
2022-11-29T20:56:04.785Z,25.08
2022-11-29T20:58:31.645Z,26.80
2022-11-29T21:00:58.750Z,28.60
2022-11-29T21:03:26.088Z,25.35
2022-11-29T21:05:53.202Z,25.92
2022-11-29T21:08:23.532Z,23.42
2022-11-29T21:10:51.096Z,29.90
2022-11-29T21:13:20.517Z,32.08
2022-11-29T21:15:47.760Z,28.40
2022-11-29T21:18:23.584Z,28.02
2022-11-29T21:21:09.966Z,29.15
2022-11-29T21:23:49.638Z,27.33
2022-11-29T21:26:51.528Z,26.77
2022-11-29T21:29:21.002Z,29.33
2022-11-29T21:31:51.345Z,29.63
2022-11-29T21:34:18.342Z,26.70
2022-11-29T21:36:48.717Z,29.27
2022-11-29T21:39:16.585Z,29.05
2022-11-29T21:41:43.181Z,28.25
2022-11-29T21:44:10.152Z,31.98
2022-11-29T21:46:36.856Z,29.75
2022-11-29T21:49:04.319Z,27.42
2022-11-29T21:51:30.877Z,26.17
2022-11-29T21:53:57.490Z,29.90
2022-11-29T21:56:24.113Z,26.98
2022-11-29T21:58:50.711Z,25.88
2022-11-29T22:01:20.062Z,26.20
2022-11-29T22:03:47.423Z,22.65
2022-11-29T22:06:18.581Z,26.40
2022-11-29T22:08:45.182Z,22.85
2022-11-29T22:11:14.646Z,22.67
2022-11-29T22:14:02.460Z,23.27
2022-11-29T22:16:29.935Z,23.27
2022-11-29T22:18:56.579Z,26.65
2022-11-29T22:21:23.288Z,30.08
2022-11-29T22:23:51.603Z,25.10
2022-11-29T22:26:18.201Z,21.27
2022-11-29T22:28:44.780Z,25.52
2022-11-29T22:31:12.815Z,23.33
2022-11-29T22:33:40.037Z,25.90
2022-11-29T22:36:11.743Z,22.73
2022-11-29T22:38:39.049Z,24.23
2022-11-29T22:41:07.991Z,24.90
2022-11-29T22:43:35.456Z,28.25
2022-11-29T22:46:05.177Z,28.40
2022-11-29T22:48:38.176Z,33.45
2022-11-29T22:51:14.394Z,29.80
2022-11-29T22:53:43.298Z,42.45
2022-11-29T22:56:11.502Z,41.70
2022-11-29T22:58:38.422Z,39.60
2022-11-29T23:01:14.750Z,41.03
2022-11-29T23:03:44.016Z,45.03
2022-11-29T23:06:13.621Z,41.30
2022-11-29T23:08:42.033Z,45.47
2022-11-29T23:11:11.831Z,52.95
2022-11-29T23:13:41.173Z,52.10
2022-11-29T23:16:11.833Z,55.35
2022-11-29T23:18:40.061Z,50.92
2022-11-29T23:21:10.324Z,54.00
2022-11-29T23:23:37.412Z,52.47
2022-11-29T23:26:05.506Z,47.30
2022-11-29T23:28:32.882Z,52.90
2022-11-29T23:31:00.073Z,58.08
2022-11-29T23:33:27.583Z,45.13
2022-11-29T23:36:05.518Z,53.67
2022-11-29T23:38:32.965Z,50.40
2022-11-29T23:40:59.658Z,57.38
2022-11-29T23:43:29.766Z,50.42
2022-11-29T23:45:56.754Z,54.38
2022-11-29T23:48:23.606Z,53.92
2022-11-29T23:50:50.625Z,59.25
2022-11-29T23:53:18.757Z,48.92
2022-11-29T23:55:47.897Z,53.40
2022-11-29T23:58:14.462Z,52.17
